sensor_id;sensor_type;location;lat;lon;timestamp;P1;durP1;ratioP1;P2;durP2;ratioP2
66739;SDS011;53653;52.188;8.602;2023-03-21T00:00:28;23.52;;;9.07;;
66739;SDS011;53653;52.188;8.602;2023-03-21T00:02:53;21.93;;;7.50;;
66739;SDS011;53653;52.188;8.602;2023-03-21T00:05:19;26.43;;;8.70;;
66739;SDS011;53653;52.188;8.602;2023-03-21T00:07:45;21.73;;;8.93;;
66739;SDS011;53653;52.188;8.602;2023-03-21T00:10:11;22.05;;;10.05;;
66739;SDS011;53653;52.188;8.602;2023-03-21T00:12:37;24.53;;;8.73;;
66739;SDS011;53653;52.188;8.602;2023-03-21T00:15:04;21.58;;;8.90;;
66739;SDS011;53653;52.188;8.602;2023-03-21T00:17:30;23.38;;;9.25;;
66739;SDS011;53653;52.188;8.602;2023-03-21T00:19:57;18.57;;;9.03;;
66739;SDS011;53653;52.188;8.602;2023-03-21T00:22:23;19.13;;;9.45;;
66739;SDS011;53653;52.188;8.602;2023-03-21T00:24:49;28.88;;;10.32;;
66739;SDS011;53653;52.188;8.602;2023-03-21T00:27:16;24.80;;;10.48;;
66739;SDS011;53653;52.188;8.602;2023-03-21T00:29:44;24.15;;;9.27;;
66739;SDS011;53653;52.188;8.602;2023-03-21T00:32:11;22.50;;;9.80;;
66739;SDS011;53653;52.188;8.602;2023-03-21T00:34:36;22.60;;;9.70;;
66739;SDS011;53653;52.188;8.602;2023-03-21T00:37:02;21.23;;;10.30;;
66739;SDS011;53653;52.188;8.602;2023-03-21T00:39:28;25.17;;;10.40;;
66739;SDS011;53653;52.188;8.602;2023-03-21T00:41:53;23.60;;;10.17;;
66739;SDS011;53653;52.188;8.602;2023-03-21T00:44:19;24.33;;;10.10;;
66739;SDS011;53653;52.188;8.602;2023-03-21T00:46:45;25.93;;;11.70;;
66739;SDS011;53653;52.188;8.602;2023-03-21T00:49:11;20.95;;;10.05;;
66739;SDS011;53653;52.188;8.602;2023-03-21T00:51:39;25.73;;;10.07;;
66739;SDS011;53653;52.188;8.602;2023-03-21T01:04:57;26.67;;;10.73;;
66739;SDS011;53653;52.188;8.602;2023-03-21T01:07:23;23.93;;;11.40;;
66739;SDS011;53653;52.188;8.602;2023-03-21T01:09:49;26.52;;;11.27;;
66739;SDS011;53653;52.188;8.602;2023-03-21T01:12:17;22.67;;;10.18;;
66739;SDS011;53653;52.188;8.602;2023-03-21T01:14:42;26.60;;;12.33;;
66739;SDS011;53653;52.188;8.602;2023-03-21T01:17:08;25.33;;;11.53;;
66739;SDS011;53653;52.188;8.602;2023-03-21T01:19:33;30.17;;;12.30;;
66739;SDS011;53653;52.188;8.602;2023-03-21T01:21:59;28.63;;;11.83;;
66739;SDS011;53653;52.188;8.602;2023-03-21T01:24:25;29.80;;;11.98;;
66739;SDS011;53653;52.188;8.602;2023-03-21T01:26:51;28.85;;;12.45;;
66739;SDS011;53653;52.188;8.602;2023-03-21T01:29:17;28.80;;;12.40;;
66739;SDS011;53653;52.188;8.602;2023-03-21T01:31:42;33.25;;;12.45;;
66739;SDS011;53653;52.188;8.602;2023-03-21T01:34:08;32.97;;;14.17;;
66739;SDS011;53653;52.188;8.602;2023-03-21T01:36:33;27.73;;;11.97;;
66739;SDS011;53653;52.188;8.602;2023-03-21T01:39:03;34.33;;;14.18;;
66739;SDS011;53653;52.188;8.602;2023-03-21T01:41:32;33.58;;;12.63;;
66739;SDS011;53653;52.188;8.602;2023-03-21T01:44:03;32.47;;;12.43;;
66739;SDS011;53653;52.188;8.602;2023-03-21T01:46:38;35.13;;;13.90;;
66739;SDS011;53653;52.188;8.602;2023-03-21T01:49:22;30.73;;;13.38;;
66739;SDS011;53653;52.188;8.602;2023-03-21T01:52:00;35.67;;;13.77;;
66739;SDS011;53653;52.188;8.602;2023-03-21T01:54:31;37.50;;;14.82;;
66739;SDS011;53653;52.188;8.602;2023-03-21T01:57:02;37.80;;;15.57;;
66739;SDS011;53653;52.188;8.602;2023-03-21T01:59:37;37.20;;;15.63;;
66739;SDS011;53653;52.188;8.602;2023-03-21T02:02:11;38.92;;;15.95;;
66739;SDS011;53653;52.188;8.602;2023-03-21T02:05:02;42.15;;;15.10;;
66739;SDS011;53653;52.188;8.602;2023-03-21T02:07:31;41.00;;;16.20;;
66739;SDS011;53653;52.188;8.602;2023-03-21T02:10:04;39.45;;;16.38;;
66739;SDS011;53653;52.188;8.602;2023-03-21T02:12:35;37.23;;;15.30;;
66739;SDS011;53653;52.188;8.602;2023-03-21T02:15:02;40.40;;;15.65;;
66739;SDS011;53653;52.188;8.602;2023-03-21T02:21:08;32.28;;;13.75;;
66739;SDS011;53653;52.188;8.602;2023-03-21T02:33:14;46.80;;;16.80;;
66739;SDS011;53653;52.188;8.602;2023-03-21T02:40:43;38.37;;;14.87;;
66739;SDS011;53653;52.188;8.602;2023-03-21T02:43:45;41.38;;;16.00;;
66739;SDS011;53653;52.188;8.602;2023-03-21T02:46:20;39.00;;;15.30;;
66739;SDS011;53653;52.188;8.602;2023-03-21T02:48:59;43.72;;;17.30;;
66739;SDS011;53653;52.188;8.602;2023-03-21T02:51:33;42.05;;;19.38;;
66739;SDS011;53653;52.188;8.602;2023-03-21T02:54:03;44.13;;;18.67;;
66739;SDS011;53653;52.188;8.602;2023-03-21T02:56:34;39.55;;;17.23;;
66739;SDS011;53653;52.188;8.602;2023-03-21T02:59:03;45.63;;;18.20;;
66739;SDS011;53653;52.188;8.602;2023-03-21T03:01:31;46.67;;;18.13;;
66739;SDS011;53653;52.188;8.602;2023-03-21T03:03:58;47.72;;;18.23;;
66739;SDS011;53653;52.188;8.602;2023-03-21T03:06:28;46.17;;;18.73;;
66739;SDS011;53653;52.188;8.602;2023-03-21T03:11:56;46.58;;;18.08;;
66739;SDS011;53653;52.188;8.602;2023-03-21T03:17:08;45.03;;;16.83;;
66739;SDS011;53653;52.188;8.602;2023-03-21T03:25:28;46.65;;;17.23;;
66739;SDS011;53653;52.188;8.602;2023-03-21T03:28:00;48.90;;;18.00;;
66739;SDS011;53653;52.188;8.602;2023-03-21T03:30:30;45.25;;;17.33;;
66739;SDS011;53653;52.188;8.602;2023-03-21T03:32:56;41.27;;;15.03;;
66739;SDS011;53653;52.188;8.602;2023-03-21T03:35:26;42.35;;;17.02;;
66739;SDS011;53653;52.188;8.602;2023-03-21T03:37:54;47.58;;;19.50;;
66739;SDS011;53653;52.188;8.602;2023-03-21T03:43:34;50.33;;;19.33;;
66739;SDS011;53653;52.188;8.602;2023-03-21T03:46:18;50.37;;;19.60;;
66739;SDS011;53653;52.188;8.602;2023-03-21T03:48:59;46.90;;;19.63;;
66739;SDS011;53653;52.188;8.602;2023-03-21T03:51:37;42.33;;;16.38;;
66739;SDS011;53653;52.188;8.602;2023-03-21T03:54:33;53.85;;;20.52;;
66739;SDS011;53653;52.188;8.602;2023-03-21T03:57:03;44.72;;;19.52;;
66739;SDS011;53653;52.188;8.602;2023-03-21T03:59:32;51.60;;;20.60;;
66739;SDS011;53653;52.188;8.602;2023-03-21T04:02:25;51.35;;;19.25;;
66739;SDS011;53653;52.188;8.602;2023-03-21T04:04:53;52.17;;;19.88;;
66739;SDS011;53653;52.188;8.602;2023-03-21T04:07:22;47.22;;;19.52;;
66739;SDS011;53653;52.188;8.602;2023-03-21T04:09:51;46.70;;;19.80;;
66739;SDS011;53653;52.188;8.602;2023-03-21T04:12:18;50.87;;;18.77;;
66739;SDS011;53653;52.188;8.602;2023-03-21T04:15:03;36.63;;;15.77;;
66739;SDS011;53653;52.188;8.602;2023-03-21T04:17:30;50.75;;;20.45;;
66739;SDS011;53653;52.188;8.602;2023-03-21T04:19:57;49.03;;;20.27;;
66739;SDS011;53653;52.188;8.602;2023-03-21T04:22:23;47.65;;;19.42;;
66739;SDS011;53653;52.188;8.602;2023-03-21T04:24:49;49.93;;;19.77;;
66739;SDS011;53653;52.188;8.602;2023-03-21T04:27:14;51.55;;;20.45;;
66739;SDS011;53653;52.188;8.602;2023-03-21T04:29:42;48.90;;;21.03;;
66739;SDS011;53653;52.188;8.602;2023-03-21T04:32:43;49.33;;;20.80;;
66739;SDS011;53653;52.188;8.602;2023-03-21T04:35:12;57.60;;;22.48;;
66739;SDS011;53653;52.188;8.602;2023-03-21T04:37:38;56.50;;;21.93;;
66739;SDS011;53653;52.188;8.602;2023-03-21T04:40:05;48.40;;;18.73;;
66739;SDS011;53653;52.188;8.602;2023-03-21T04:42:32;49.65;;;18.92;;
66739;SDS011;53653;52.188;8.602;2023-03-21T04:44:59;43.25;;;15.32;;
66739;SDS011;53653;52.188;8.602;2023-03-21T04:47:25;43.85;;;19.33;;
66739;SDS011;53653;52.188;8.602;2023-03-21T04:49:53;44.23;;;17.67;;
66739;SDS011;53653;52.188;8.602;2023-03-21T04:52:19;48.35;;;17.73;;
66739;SDS011;53653;52.188;8.602;2023-03-21T04:54:45;43.88;;;17.50;;
66739;SDS011;53653;52.188;8.602;2023-03-21T04:57:11;40.57;;;16.87;;
66739;SDS011;53653;52.188;8.602;2023-03-21T04:59:36;44.88;;;17.25;;
66739;SDS011;53653;52.188;8.602;2023-03-21T05:02:02;44.63;;;17.30;;
66739;SDS011;53653;52.188;8.602;2023-03-21T05:04:29;47.50;;;16.27;;
66739;SDS011;53653;52.188;8.602;2023-03-21T05:06:55;43.53;;;17.02;;
66739;SDS011;53653;52.188;8.602;2023-03-21T05:09:20;46.57;;;17.80;;
66739;SDS011;53653;52.188;8.602;2023-03-21T05:11:47;48.42;;;17.85;;
66739;SDS011;53653;52.188;8.602;2023-03-21T05:14:15;44.38;;;17.35;;
66739;SDS011;53653;52.188;8.602;2023-03-21T05:16:44;41.88;;;15.40;;
66739;SDS011;53653;52.188;8.602;2023-03-21T05:19:14;35.03;;;14.23;;
66739;SDS011;53653;52.188;8.602;2023-03-21T05:21:42;31.80;;;14.30;;
66739;SDS011;53653;52.188;8.602;2023-03-21T05:24:15;38.58;;;14.55;;
66739;SDS011;53653;52.188;8.602;2023-03-21T05:26:44;37.10;;;14.45;;
66739;SDS011;53653;52.188;8.602;2023-03-21T05:29:20;40.63;;;14.73;;
66739;SDS011;53653;52.188;8.602;2023-03-21T05:31:57;37.73;;;13.90;;
66739;SDS011;53653;52.188;8.602;2023-03-21T05:34:24;38.03;;;14.90;;
66739;SDS011;53653;52.188;8.602;2023-03-21T05:36:52;35.88;;;13.63;;
66739;SDS011;53653;52.188;8.602;2023-03-21T05:39:19;35.97;;;14.20;;
66739;SDS011;53653;52.188;8.602;2023-03-21T05:41:57;35.78;;;13.70;;
66739;SDS011;53653;52.188;8.602;2023-03-21T05:44:23;39.60;;;14.03;;
66739;SDS011;53653;52.188;8.602;2023-03-21T05:46:49;43.20;;;14.68;;
66739;SDS011;53653;52.188;8.602;2023-03-21T05:49:16;29.23;;;11.73;;
66739;SDS011;53653;52.188;8.602;2023-03-21T05:51:42;32.00;;;12.50;;
66739;SDS011;53653;52.188;8.602;2023-03-21T05:54:11;31.23;;;11.00;;
66739;SDS011;53653;52.188;8.602;2023-03-21T05:56:42;36.00;;;13.18;;
66739;SDS011;53653;52.188;8.602;2023-03-21T05:59:10;29.05;;;10.95;;
66739;SDS011;53653;52.188;8.602;2023-03-21T06:01:40;35.15;;;13.15;;
66739;SDS011;53653;52.188;8.602;2023-03-21T06:04:11;31.67;;;12.13;;
66739;SDS011;53653;52.188;8.602;2023-03-21T06:06:38;32.03;;;12.50;;
66739;SDS011;53653;52.188;8.602;2023-03-21T06:09:04;35.22;;;13.15;;
66739;SDS011;53653;52.188;8.602;2023-03-21T06:11:32;31.00;;;12.10;;
66739;SDS011;53653;52.188;8.602;2023-03-21T06:14:19;32.03;;;11.98;;
66739;SDS011;53653;52.188;8.602;2023-03-21T06:16:57;30.75;;;12.13;;
66739;SDS011;53653;52.188;8.602;2023-03-21T06:19:23;32.67;;;12.30;;
66739;SDS011;53653;52.188;8.602;2023-03-21T06:22:07;35.95;;;12.95;;
66739;SDS011;53653;52.188;8.602;2023-03-21T06:24:35;40.80;;;14.32;;
66739;SDS011;53653;52.188;8.602;2023-03-21T06:27:01;29.23;;;11.10;;
66739;SDS011;53653;52.188;8.602;2023-03-21T06:29:34;38.55;;;13.35;;
66739;SDS011;53653;52.188;8.602;2023-03-21T06:32:00;34.58;;;13.23;;
66739;SDS011;53653;52.188;8.602;2023-03-21T06:34:26;32.35;;;12.52;;
66739;SDS011;53653;52.188;8.602;2023-03-21T06:36:51;27.03;;;9.83;;
66739;SDS011;53653;52.188;8.602;2023-03-21T06:39:24;33.90;;;12.13;;
66739;SDS011;53653;52.188;8.602;2023-03-21T06:41:50;33.47;;;12.02;;
66739;SDS011;53653;52.188;8.602;2023-03-21T06:44:16;32.67;;;11.90;;
66739;SDS011;53653;52.188;8.602;2023-03-21T06:46:51;36.40;;;12.63;;
66739;SDS011;53653;52.188;8.602;2023-03-21T06:49:18;29.85;;;12.75;;
66739;SDS011;53653;52.188;8.602;2023-03-21T06:51:44;35.03;;;12.57;;
66739;SDS011;53653;52.188;8.602;2023-03-21T06:54:15;31.07;;;12.17;;
66739;SDS011;53653;52.188;8.602;2023-03-21T06:56:56;35.30;;;12.23;;
66739;SDS011;53653;52.188;8.602;2023-03-21T06:59:26;29.48;;;13.40;;
66739;SDS011;53653;52.188;8.602;2023-03-21T07:01:56;28.20;;;12.95;;
66739;SDS011;53653;52.188;8.602;2023-03-21T07:04:22;29.10;;;11.25;;
66739;SDS011;53653;52.188;8.602;2023-03-21T07:06:48;29.90;;;12.60;;
66739;SDS011;53653;52.188;8.602;2023-03-21T07:09:17;32.55;;;12.55;;
66739;SDS011;53653;52.188;8.602;2023-03-21T07:11:45;33.75;;;12.60;;
66739;SDS011;53653;52.188;8.602;2023-03-21T07:14:12;29.20;;;11.75;;
66739;SDS011;53653;52.188;8.602;2023-03-21T07:16:38;27.97;;;11.30;;
66739;SDS011;53653;52.188;8.602;2023-03-21T07:19:03;23.70;;;10.07;;
66739;SDS011;53653;52.188;8.602;2023-03-21T07:21:30;25.17;;;10.90;;
66739;SDS011;53653;52.188;8.602;2023-03-21T07:23:56;26.98;;;11.35;;
66739;SDS011;53653;52.188;8.602;2023-03-21T07:26:22;34.13;;;11.57;;
66739;SDS011;53653;52.188;8.602;2023-03-21T07:28:47;28.95;;;10.30;;
66739;SDS011;53653;52.188;8.602;2023-03-21T07:31:14;24.52;;;10.82;;
66739;SDS011;53653;52.188;8.602;2023-03-21T07:33:41;27.40;;;10.83;;
66739;SDS011;53653;52.188;8.602;2023-03-21T07:36:08;24.00;;;10.52;;
66739;SDS011;53653;52.188;8.602;2023-03-21T07:38:36;25.35;;;9.73;;
66739;SDS011;53653;52.188;8.602;2023-03-21T07:41:02;26.90;;;9.87;;
66739;SDS011;53653;52.188;8.602;2023-03-21T07:43:31;28.77;;;11.13;;
66739;SDS011;53653;52.188;8.602;2023-03-21T07:45:57;28.20;;;11.10;;
66739;SDS011;53653;52.188;8.602;2023-03-21T07:48:25;27.25;;;10.25;;
66739;SDS011;53653;52.188;8.602;2023-03-21T07:50:51;26.70;;;10.65;;
66739;SDS011;53653;52.188;8.602;2023-03-21T07:53:17;28.10;;;10.73;;
66739;SDS011;53653;52.188;8.602;2023-03-21T07:55:42;28.77;;;10.75;;
66739;SDS011;53653;52.188;8.602;2023-03-21T07:58:08;27.23;;;10.23;;
66739;SDS011;53653;52.188;8.602;2023-03-21T08:00:34;24.63;;;10.93;;
66739;SDS011;53653;52.188;8.602;2023-03-21T08:02:59;23.00;;;9.63;;
66739;SDS011;53653;52.188;8.602;2023-03-21T08:05:27;31.47;;;11.13;;
66739;SDS011;53653;52.188;8.602;2023-03-21T08:08:00;27.98;;;11.45;;
66739;SDS011;53653;52.188;8.602;2023-03-21T08:10:31;26.20;;;9.88;;
66739;SDS011;53653;52.188;8.602;2023-03-21T08:13:00;24.70;;;10.05;;
66739;SDS011;53653;52.188;8.602;2023-03-21T08:15:26;21.60;;;9.17;;
66739;SDS011;53653;52.188;8.602;2023-03-21T08:17:52;24.40;;;10.32;;
66739;SDS011;53653;52.188;8.602;2023-03-21T08:20:18;24.77;;;9.10;;
66739;SDS011;53653;52.188;8.602;2023-03-21T08:22:46;25.33;;;10.13;;
66739;SDS011;53653;52.188;8.602;2023-03-21T08:25:13;23.40;;;10.35;;
66739;SDS011;53653;52.188;8.602;2023-03-21T08:27:40;25.57;;;10.07;;
66739;SDS011;53653;52.188;8.602;2023-03-21T08:30:08;35.20;;;10.10;;
66739;SDS011;53653;52.188;8.602;2023-03-21T08:32:35;25.08;;;10.57;;
66739;SDS011;53653;52.188;8.602;2023-03-21T08:35:03;23.23;;;9.95;;
66739;SDS011;53653;52.188;8.602;2023-03-21T08:37:35;24.98;;;10.23;;
66739;SDS011;53653;52.188;8.602;2023-03-21T08:40:05;25.47;;;10.00;;
66739;SDS011;53653;52.188;8.602;2023-03-21T08:42:39;26.23;;;10.52;;
66739;SDS011;53653;52.188;8.602;2023-03-21T08:45:05;25.27;;;9.70;;
66739;SDS011;53653;52.188;8.602;2023-03-21T08:47:31;21.20;;;9.55;;
66739;SDS011;53653;52.188;8.602;2023-03-21T08:49:57;28.77;;;11.40;;
66739;SDS011;53653;52.188;8.602;2023-03-21T08:52:23;28.03;;;10.90;;
66739;SDS011;53653;52.188;8.602;2023-03-21T08:54:50;28.38;;;11.00;;
66739;SDS011;53653;52.188;8.602;2023-03-21T08:57:15;27.17;;;9.75;;
66739;SDS011;53653;52.188;8.602;2023-03-21T08:59:41;26.23;;;10.10;;
66739;SDS011;53653;52.188;8.602;2023-03-21T09:02:08;23.35;;;10.27;;
66739;SDS011;53653;52.188;8.602;2023-03-21T09:04:37;23.35;;;8.90;;
66739;SDS011;53653;52.188;8.602;2023-03-21T09:07:03;25.53;;;7.50;;
66739;SDS011;53653;52.188;8.602;2023-03-21T09:09:30;23.80;;;8.90;;
66739;SDS011;53653;52.188;8.602;2023-03-21T09:11:56;26.65;;;10.23;;
66739;SDS011;53653;52.188;8.602;2023-03-21T09:14:22;19.17;;;8.45;;
66739;SDS011;53653;52.188;8.602;2023-03-21T09:16:48;25.08;;;9.50;;
66739;SDS011;53653;52.188;8.602;2023-03-21T09:19:14;23.23;;;8.43;;
66739;SDS011;53653;52.188;8.602;2023-03-21T09:21:40;25.25;;;9.57;;
66739;SDS011;53653;52.188;8.602;2023-03-21T09:24:06;28.35;;;9.30;;
66739;SDS011;53653;52.188;8.602;2023-03-21T09:26:32;25.70;;;10.60;;
66739;SDS011;53653;52.188;8.602;2023-03-21T09:28:58;17.70;;;7.93;;
66739;SDS011;53653;52.188;8.602;2023-03-21T09:31:25;23.03;;;8.73;;
66739;SDS011;53653;52.188;8.602;2023-03-21T09:33:52;27.48;;;11.70;;
66739;SDS011;53653;52.188;8.602;2023-03-21T09:36:20;27.45;;;11.15;;
66739;SDS011;53653;52.188;8.602;2023-03-21T09:38:49;26.65;;;11.10;;
66739;SDS011;53653;52.188;8.602;2023-03-21T09:43:55;24.43;;;9.93;;
66739;SDS011;53653;52.188;8.602;2023-03-21T09:46:25;26.73;;;10.90;;
66739;SDS011;53653;52.188;8.602;2023-03-21T09:49:01;30.48;;;11.75;;
66739;SDS011;53653;52.188;8.602;2023-03-21T09:51:42;29.92;;;11.68;;
66739;SDS011;53653;52.188;8.602;2023-03-21T09:54:30;32.05;;;12.18;;
66739;SDS011;53653;52.188;8.602;2023-03-21T09:57:04;24.33;;;11.60;;
66739;SDS011;53653;52.188;8.602;2023-03-21T09:59:40;30.17;;;11.55;;
66739;SDS011;53653;52.188;8.602;2023-03-21T10:05:05;29.58;;;9.85;;
66739;SDS011;53653;52.188;8.602;2023-03-21T10:07:38;20.63;;;9.32;;
66739;SDS011;53653;52.188;8.602;2023-03-21T10:10:06;31.97;;;11.10;;
66739;SDS011;53653;52.188;8.602;2023-03-21T10:12:46;27.90;;;11.40;;
66739;SDS011;53653;52.188;8.602;2023-03-21T10:15:15;25.80;;;11.27;;
66739;SDS011;53653;52.188;8.602;2023-03-21T10:18:00;25.30;;;11.60;;
66739;SDS011;53653;52.188;8.602;2023-03-21T10:20:36;26.63;;;11.07;;
66739;SDS011;53653;52.188;8.602;2023-03-21T10:23:13;21.97;;;9.50;;
66739;SDS011;53653;52.188;8.602;2023-03-21T10:25:42;25.85;;;10.73;;
66739;SDS011;53653;52.188;8.602;2023-03-21T10:28:19;29.20;;;10.50;;
66739;SDS011;53653;52.188;8.602;2023-03-21T10:30:49;23.58;;;10.30;;
66739;SDS011;53653;52.188;8.602;2023-03-21T10:33:18;22.90;;;10.88;;
66739;SDS011;53653;52.188;8.602;2023-03-21T10:35:55;29.90;;;9.47;;
66739;SDS011;53653;52.188;8.602;2023-03-21T10:38:24;25.40;;;9.93;;
66739;SDS011;53653;52.188;8.602;2023-03-21T10:40:51;27.52;;;11.95;;
66739;SDS011;53653;52.188;8.602;2023-03-21T10:45:52;26.50;;;11.48;;
66739;SDS011;53653;52.188;8.602;2023-03-21T10:48:19;25.63;;;10.83;;
66739;SDS011;53653;52.188;8.602;2023-03-21T10:50:46;20.98;;;9.23;;
66739;SDS011;53653;52.188;8.602;2023-03-21T10:53:28;27.08;;;10.80;;
66739;SDS011;53653;52.188;8.602;2023-03-21T10:55:58;20.17;;;10.48;;
66739;SDS011;53653;52.188;8.602;2023-03-21T10:58:29;22.77;;;11.18;;
66739;SDS011;53653;52.188;8.602;2023-03-21T11:01:02;22.93;;;9.43;;
66739;SDS011;53653;52.188;8.602;2023-03-21T11:06:06;27.00;;;11.55;;
66739;SDS011;53653;52.188;8.602;2023-03-21T11:08:37;14.68;;;7.28;;
66739;SDS011;53653;52.188;8.602;2023-03-21T11:11:06;24.50;;;10.25;;
66739;SDS011;53653;52.188;8.602;2023-03-21T11:13:40;24.93;;;10.67;;
66739;SDS011;53653;52.188;8.602;2023-03-21T11:16:11;24.55;;;11.27;;
66739;SDS011;53653;52.188;8.602;2023-03-21T11:18:48;22.10;;;10.10;;
66739;SDS011;53653;52.188;8.602;2023-03-21T11:21:15;21.50;;;10.05;;
66739;SDS011;53653;52.188;8.602;2023-03-21T11:23:43;20.90;;;10.57;;
66739;SDS011;53653;52.188;8.602;2023-03-21T11:26:24;18.17;;;7.13;;
66739;SDS011;53653;52.188;8.602;2023-03-21T11:28:54;23.80;;;9.45;;
66739;SDS011;53653;52.188;8.602;2023-03-21T11:31:21;23.75;;;9.93;;
66739;SDS011;53653;52.188;8.602;2023-03-21T11:34:03;18.85;;;7.90;;
66739;SDS011;53653;52.188;8.602;2023-03-21T11:36:32;18.05;;;9.23;;
66739;SDS011;53653;52.188;8.602;2023-03-21T11:41:35;18.83;;;8.93;;
66739;SDS011;53653;52.188;8.602;2023-03-21T11:44:04;17.83;;;7.43;;
66739;SDS011;53653;52.188;8.602;2023-03-21T11:46:31;18.63;;;8.75;;
66739;SDS011;53653;52.188;8.602;2023-03-21T11:49:03;19.10;;;7.53;;
66739;SDS011;53653;52.188;8.602;2023-03-21T11:57:19;17.05;;;7.68;;
66739;SDS011;53653;52.188;8.602;2023-03-21T11:59:51;20.35;;;9.02;;
66739;SDS011;53653;52.188;8.602;2023-03-21T12:05:34;20.77;;;8.97;;
66739;SDS011;53653;52.188;8.602;2023-03-21T12:19:38;23.87;;;9.73;;
66739;SDS011;53653;52.188;8.602;2023-03-21T12:22:20;26.15;;;10.40;;
66739;SDS011;53653;52.188;8.602;2023-03-21T12:30:42;19.13;;;8.52;;
66739;SDS011;53653;52.188;8.602;2023-03-21T12:38:40;18.35;;;7.68;;
66739;SDS011;53653;52.188;8.602;2023-03-21T12:41:33;26.80;;;10.80;;
66739;SDS011;53653;52.188;8.602;2023-03-21T12:44:37;19.88;;;9.13;;
66739;SDS011;53653;52.188;8.602;2023-03-21T12:47:08;26.67;;;11.83;;
66739;SDS011;53653;52.188;8.602;2023-03-21T12:52:23;24.65;;;11.50;;
66739;SDS011;53653;52.188;8.602;2023-03-21T12:55:08;23.40;;;9.68;;
66739;SDS011;53653;52.188;8.602;2023-03-21T13:00:34;23.90;;;10.97;;
66739;SDS011;53653;52.188;8.602;2023-03-21T13:03:19;24.08;;;10.75;;
66739;SDS011;53653;52.188;8.602;2023-03-21T13:05:49;25.85;;;11.90;;
66739;SDS011;53653;52.188;8.602;2023-03-21T13:08:36;22.65;;;11.57;;
66739;SDS011;53653;52.188;8.602;2023-03-21T13:11:04;21.02;;;11.02;;
66739;SDS011;53653;52.188;8.602;2023-03-21T13:22:00;21.35;;;9.95;;
66739;SDS011;53653;52.188;8.602;2023-03-21T13:24:46;25.70;;;11.05;;
66739;SDS011;53653;52.188;8.602;2023-03-21T13:27:15;19.97;;;10.50;;
66739;SDS011;53653;52.188;8.602;2023-03-21T13:32:35;21.80;;;9.23;;
66739;SDS011;53653;52.188;8.602;2023-03-21T13:38:35;21.88;;;9.50;;
66739;SDS011;53653;52.188;8.602;2023-03-21T13:40:49;26.37;;;9.97;;
66739;SDS011;53653;52.188;8.602;2023-03-21T13:43:31;22.90;;;10.10;;
66739;SDS011;53653;52.188;8.602;2023-03-21T13:59:18;21.88;;;10.10;;
66739;SDS011;53653;52.188;8.602;2023-03-21T14:04:41;16.87;;;7.57;;
66739;SDS011;53653;52.188;8.602;2023-03-21T14:07:14;13.15;;;7.38;;
66739;SDS011;53653;52.188;8.602;2023-03-21T14:09:49;16.80;;;7.50;;
66739;SDS011;53653;52.188;8.602;2023-03-21T14:12:19;18.48;;;8.73;;
66739;SDS011;53653;52.188;8.602;2023-03-21T14:14:49;20.02;;;8.75;;
66739;SDS011;53653;52.188;8.602;2023-03-21T14:17:25;14.30;;;8.00;;
66739;SDS011;53653;52.188;8.602;2023-03-21T14:19:54;17.25;;;7.40;;
66739;SDS011;53653;52.188;8.602;2023-03-21T14:22:23;15.07;;;7.00;;
66739;SDS011;53653;52.188;8.602;2023-03-21T14:24:58;15.38;;;6.53;;
66739;SDS011;53653;52.188;8.602;2023-03-21T14:27:29;16.03;;;7.43;;
66739;SDS011;53653;52.188;8.602;2023-03-21T14:29:57;13.35;;;6.43;;
66739;SDS011;53653;52.188;8.602;2023-03-21T14:32:25;11.60;;;5.45;;
66739;SDS011;53653;52.188;8.602;2023-03-21T14:34:53;12.15;;;5.95;;
66739;SDS011;53653;52.188;8.602;2023-03-21T14:37:25;14.45;;;6.47;;
66739;SDS011;53653;52.188;8.602;2023-03-21T14:39:59;11.97;;;5.60;;
66739;SDS011;53653;52.188;8.602;2023-03-21T14:42:26;10.45;;;5.47;;
66739;SDS011;53653;52.188;8.602;2023-03-21T14:44:57;12.50;;;5.25;;
66739;SDS011;53653;52.188;8.602;2023-03-21T14:47:28;15.48;;;5.75;;
66739;SDS011;53653;52.188;8.602;2023-03-21T14:49:56;11.52;;;4.93;;
66739;SDS011;53653;52.188;8.602;2023-03-21T14:52:24;11.03;;;4.97;;
66739;SDS011;53653;52.188;8.602;2023-03-21T14:54:54;11.88;;;5.57;;
66739;SDS011;53653;52.188;8.602;2023-03-21T14:57:27;13.23;;;5.88;;
66739;SDS011;53653;52.188;8.602;2023-03-21T14:59:57;11.57;;;4.95;;
66739;SDS011;53653;52.188;8.602;2023-03-21T15:02:33;10.30;;;5.60;;
66739;SDS011;53653;52.188;8.602;2023-03-21T15:05:17;12.77;;;5.23;;
66739;SDS011;53653;52.188;8.602;2023-03-21T15:07:54;11.63;;;5.00;;
66739;SDS011;53653;52.188;8.602;2023-03-21T15:10:23;11.80;;;4.45;;
66739;SDS011;53653;52.188;8.602;2023-03-21T15:13:00;13.48;;;5.70;;
66739;SDS011;53653;52.188;8.602;2023-03-21T15:15:37;7.65;;;3.45;;
66739;SDS011;53653;52.188;8.602;2023-03-21T15:18:03;10.83;;;5.00;;
66739;SDS011;53653;52.188;8.602;2023-03-21T15:20:31;11.25;;;4.82;;
66739;SDS011;53653;52.188;8.602;2023-03-21T15:23:02;10.88;;;4.35;;
66739;SDS011;53653;52.188;8.602;2023-03-21T15:25:35;10.65;;;3.80;;
66739;SDS011;53653;52.188;8.602;2023-03-21T15:28:04;13.13;;;5.00;;
66739;SDS011;53653;52.188;8.602;2023-03-21T15:30:30;8.43;;;3.73;;
66739;SDS011;53653;52.188;8.602;2023-03-21T15:33:04;9.75;;;4.90;;
66739;SDS011;53653;52.188;8.602;2023-03-21T15:35:36;12.18;;;5.28;;
66739;SDS011;53653;52.188;8.602;2023-03-21T15:38:04;10.55;;;5.20;;
66739;SDS011;53653;52.188;8.602;2023-03-21T15:40:31;11.15;;;5.45;;
66739;SDS011;53653;52.188;8.602;2023-03-21T15:43:05;10.60;;;4.20;;
66739;SDS011;53653;52.188;8.602;2023-03-21T15:45:46;11.95;;;4.60;;
66739;SDS011;53653;52.188;8.602;2023-03-21T15:48:16;10.07;;;4.25;;
66739;SDS011;53653;52.188;8.602;2023-03-21T15:53:35;11.07;;;4.22;;
66739;SDS011;53653;52.188;8.602;2023-03-21T15:56:02;12.17;;;4.60;;
66739;SDS011;53653;52.188;8.602;2023-03-21T15:58:34;11.93;;;4.57;;
66739;SDS011;53653;52.188;8.602;2023-03-21T16:01:03;9.50;;;3.78;;
66739;SDS011;53653;52.188;8.602;2023-03-21T16:03:36;15.27;;;6.47;;
66739;SDS011;53653;52.188;8.602;2023-03-21T16:08:45;11.13;;;5.40;;
66739;SDS011;53653;52.188;8.602;2023-03-21T16:13:52;8.88;;;3.97;;
66739;SDS011;53653;52.188;8.602;2023-03-21T16:16:20;9.88;;;3.85;;
66739;SDS011;53653;52.188;8.602;2023-03-21T16:18:51;7.78;;;3.50;;
66739;SDS011;53653;52.188;8.602;2023-03-21T16:21:20;7.57;;;3.03;;
66739;SDS011;53653;52.188;8.602;2023-03-21T16:23:47;8.63;;;3.80;;
66739;SDS011;53653;52.188;8.602;2023-03-21T16:26:17;9.55;;;3.72;;
66739;SDS011;53653;52.188;8.602;2023-03-21T16:28:46;8.73;;;3.60;;
66739;SDS011;53653;52.188;8.602;2023-03-21T16:31:13;9.20;;;3.40;;
66739;SDS011;53653;52.188;8.602;2023-03-21T16:33:43;10.83;;;3.70;;
66739;SDS011;53653;52.188;8.602;2023-03-21T16:36:13;8.85;;;3.30;;
66739;SDS011;53653;52.188;8.602;2023-03-21T16:38:43;6.40;;;2.75;;
66739;SDS011;53653;52.188;8.602;2023-03-21T17:40:22;8.88;;;3.40;;
66739;SDS011;53653;52.188;8.602;2023-03-21T17:42:52;8.57;;;2.95;;
66739;SDS011;53653;52.188;8.602;2023-03-21T17:45:18;7.20;;;3.00;;
66739;SDS011;53653;52.188;8.602;2023-03-21T17:47:45;9.50;;;3.40;;
66739;SDS011;53653;52.188;8.602;2023-03-21T17:50:16;9.52;;;3.15;;
66739;SDS011;53653;52.188;8.602;2023-03-21T17:52:44;9.15;;;3.25;;
66739;SDS011;53653;52.188;8.602;2023-03-21T17:55:10;8.35;;;3.60;;